sensor_id;sensor_type;location;lat;lon;timestamp;P1;durP1;ratioP1;P2;durP2;ratioP2
55218;SDS011;41088;44.012;20.902;2022-10-14T07:30:58;34.97;;;18.27;;
55218;SDS011;41088;44.012;20.902;2022-10-14T07:33:35;32.88;;;17.85;;
55218;SDS011;41088;44.012;20.902;2022-10-14T07:36:10;38.50;;;18.20;;
55218;SDS011;41088;44.012;20.902;2022-10-14T07:38:38;34.28;;;18.00;;
55218;SDS011;41088;44.012;20.902;2022-10-14T07:41:04;33.72;;;17.90;;
55218;SDS011;41088;44.012;20.902;2022-10-14T07:43:41;34.45;;;17.67;;
55218;SDS011;41088;44.012;20.902;2022-10-14T07:46:08;33.78;;;17.73;;
55218;SDS011;41088;44.012;20.902;2022-10-14T07:48:34;37.38;;;19.92;;
55218;SDS011;41088;44.012;20.902;2022-10-14T07:51:01;35.05;;;19.77;;
55218;SDS011;41088;44.012;20.902;2022-10-14T07:53:27;33.33;;;18.35;;
55218;SDS011;41088;44.012;20.902;2022-10-14T07:55:55;42.25;;;20.20;;
55218;SDS011;41088;44.012;20.902;2022-10-14T07:58:23;39.33;;;19.15;;
55218;SDS011;41088;44.012;20.902;2022-10-14T08:00:51;35.60;;;18.60;;
55218;SDS011;41088;44.012;20.902;2022-10-14T08:03:19;39.35;;;18.70;;
55218;SDS011;41088;44.012;20.902;2022-10-14T08:05:46;34.95;;;18.77;;
55218;SDS011;41088;44.012;20.902;2022-10-14T08:08:14;35.47;;;18.10;;
55218;SDS011;41088;44.012;20.902;2022-10-14T08:13:39;31.85;;;17.42;;
55218;SDS011;41088;44.012;20.902;2022-10-14T08:18:59;35.53;;;18.70;;
55218;SDS011;41088;44.012;20.902;2022-10-14T08:21:26;38.55;;;19.17;;
55218;SDS011;41088;44.012;20.902;2022-10-14T08:23:52;36.13;;;18.77;;
55218;SDS011;41088;44.012;20.902;2022-10-14T08:26:34;33.63;;;18.35;;
55218;SDS011;41088;44.012;20.902;2022-10-14T08:29:02;36.50;;;18.35;;
55218;SDS011;41088;44.012;20.902;2022-10-14T08:31:29;40.90;;;17.40;;
55218;SDS011;41088;44.012;20.902;2022-10-14T08:33:58;32.95;;;17.38;;
55218;SDS011;41088;44.012;20.902;2022-10-14T08:36:24;41.88;;;19.20;;
55218;SDS011;41088;44.012;20.902;2022-10-14T08:38:52;41.25;;;20.02;;
55218;SDS011;41088;44.012;20.902;2022-10-14T08:43:53;34.22;;;19.90;;
55218;SDS011;41088;44.012;20.902;2022-10-14T08:46:32;42.55;;;26.30;;
55218;SDS011;41088;44.012;20.902;2022-10-14T08:51:33;31.10;;;17.90;;
55218;SDS011;41088;44.012;20.902;2022-10-14T08:59:06;30.88;;;15.88;;
55218;SDS011;41088;44.012;20.902;2022-10-14T09:01:43;27.73;;;16.25;;
55218;SDS011;41088;44.012;20.902;2022-10-14T09:04:18;26.65;;;15.70;;
55218;SDS011;41088;44.012;20.902;2022-10-14T09:06:50;23.75;;;14.52;;
55218;SDS011;41088;44.012;20.902;2022-10-14T09:09:29;26.05;;;14.32;;
55218;SDS011;41088;44.012;20.902;2022-10-14T09:12:17;24.23;;;14.48;;
55218;SDS011;41088;44.012;20.902;2022-10-14T09:14:53;22.65;;;14.55;;
55218;SDS011;41088;44.012;20.902;2022-10-14T09:17:42;26.02;;;14.57;;
55218;SDS011;41088;44.012;20.902;2022-10-14T09:25:58;26.58;;;14.60;;
55218;SDS011;41088;44.012;20.902;2022-10-14T09:31:03;23.80;;;13.70;;
55218;SDS011;41088;44.012;20.902;2022-10-14T09:33:34;26.38;;;13.40;;
55218;SDS011;41088;44.012;20.902;2022-10-14T09:38:35;26.25;;;12.75;;
55218;SDS011;41088;44.012;20.902;2022-10-14T09:46:08;19.88;;;11.60;;
55218;SDS011;41088;44.012;20.902;2022-10-14T09:48:46;27.35;;;12.70;;
55218;SDS011;41088;44.012;20.902;2022-10-14T09:51:33;22.92;;;12.20;;
55218;SDS011;41088;44.012;20.902;2022-10-14T09:54:00;22.15;;;12.80;;
55218;SDS011;41088;44.012;20.902;2022-10-14T09:56:37;20.52;;;12.27;;
55218;SDS011;41088;44.012;20.902;2022-10-14T09:59:04;18.40;;;11.35;;
55218;SDS011;41088;44.012;20.902;2022-10-14T10:01:39;21.38;;;11.90;;
55218;SDS011;41088;44.012;20.902;2022-10-14T10:06:34;25.05;;;11.52;;
55218;SDS011;41088;44.012;20.902;2022-10-14T10:09:17;22.52;;;11.38;;
55218;SDS011;41088;44.012;20.902;2022-10-14T10:14:59;27.13;;;12.32;;
55218;SDS011;41088;44.012;20.902;2022-10-14T10:17:31;20.33;;;11.68;;
55218;SDS011;41088;44.012;20.902;2022-10-14T10:20:17;24.63;;;12.05;;
55218;SDS011;41088;44.012;20.902;2022-10-14T10:22:44;21.75;;;11.60;;
55218;SDS011;41088;44.012;20.902;2022-10-14T10:27:40;18.00;;;11.40;;
55218;SDS011;41088;44.012;20.902;2022-10-14T10:30:14;22.08;;;11.27;;
55218;SDS011;41088;44.012;20.902;2022-10-14T10:35:25;19.23;;;10.63;;
55218;SDS011;41088;44.012;20.902;2022-10-14T10:38:02;18.92;;;10.82;;
55218;SDS011;41088;44.012;20.902;2022-10-14T10:40:35;18.45;;;10.45;;
55218;SDS011;41088;44.012;20.902;2022-10-14T10:48:21;17.38;;;10.52;;
55218;SDS011;41088;44.012;20.902;2022-10-14T10:56:11;19.88;;;10.10;;
55218;SDS011;41088;44.012;20.902;2022-10-14T10:58:40;18.02;;;9.13;;
55218;SDS011;41088;44.012;20.902;2022-10-14T11:09:25;11.27;;;5.18;;
55218;SDS011;41088;44.012;20.902;2022-10-14T11:12:17;12.18;;;4.05;;
55218;SDS011;41088;44.012;20.902;2022-10-14T11:22:57;11.43;;;4.65;;
55218;SDS011;41088;44.012;20.902;2022-10-14T11:26:04;12.15;;;4.03;;
55218;SDS011;41088;44.012;20.902;2022-10-14T11:28:44;8.98;;;4.18;;
55218;SDS011;41088;44.012;20.902;2022-10-14T11:31:55;7.32;;;3.58;;
55218;SDS011;41088;44.012;20.902;2022-10-14T11:35:00;8.25;;;3.95;;
55218;SDS011;41088;44.012;20.902;2022-10-14T11:46:08;15.75;;;5.18;;
55218;SDS011;41088;44.012;20.902;2022-10-14T11:48:55;15.23;;;4.53;;
55218;SDS011;41088;44.012;20.902;2022-10-14T11:56:29;16.38;;;5.15;;
55218;SDS011;41088;44.012;20.902;2022-10-14T11:59:08;12.02;;;4.55;;
55218;SDS011;41088;44.012;20.902;2022-10-14T12:01:50;8.38;;;4.32;;
55218;SDS011;41088;44.012;20.902;2022-10-14T12:04:33;11.55;;;4.50;;
55218;SDS011;41088;44.012;20.902;2022-10-14T12:09:34;11.25;;;5.00;;
55218;SDS011;41088;44.012;20.902;2022-10-14T12:14:38;11.25;;;4.47;;
55218;SDS011;41088;44.012;20.902;2022-10-14T12:17:52;9.20;;;4.38;;
55218;SDS011;41088;44.012;20.902;2022-10-14T12:19:53;11.25;;;4.20;;
55218;SDS011;41088;44.012;20.902;2022-10-14T12:22:21;12.00;;;3.83;;
55218;SDS011;41088;44.012;20.902;2022-10-14T12:24:49;17.15;;;4.32;;
55218;SDS011;41088;44.012;20.902;2022-10-14T12:27:17;6.40;;;4.03;;
55218;SDS011;41088;44.012;20.902;2022-10-14T12:29:45;15.20;;;4.13;;
55218;SDS011;41088;44.012;20.902;2022-10-14T12:32:19;9.07;;;4.05;;
55218;SDS011;41088;44.012;20.902;2022-10-14T12:34:46;12.35;;;5.93;;
55218;SDS011;41088;44.012;20.902;2022-10-14T12:45:22;9.63;;;4.10;;
55218;SDS011;41088;44.012;20.902;2022-10-14T12:48:05;9.73;;;3.67;;
55218;SDS011;41088;44.012;20.902;2022-10-14T12:50:36;10.00;;;4.10;;
55218;SDS011;41088;44.012;20.902;2022-10-14T12:56:30;9.90;;;3.97;;
55218;SDS011;41088;44.012;20.902;2022-10-14T12:58:38;8.52;;;3.83;;
55218;SDS011;41088;44.012;20.902;2022-10-14T13:01:13;14.27;;;4.53;;
55218;SDS011;41088;44.012;20.902;2022-10-14T13:03:41;7.15;;;3.65;;
55218;SDS011;41088;44.012;20.902;2022-10-14T13:11:44;8.27;;;3.95;;
55218;SDS011;41088;44.012;20.902;2022-10-14T13:19:37;9.93;;;4.00;;
55218;SDS011;41088;44.012;20.902;2022-10-14T13:24:41;7.90;;;4.60;;
55218;SDS011;41088;44.012;20.902;2022-10-14T13:27:10;13.63;;;4.18;;
55218;SDS011;41088;44.012;20.902;2022-10-14T13:34:58;12.52;;;5.15;;
55218;SDS011;41088;44.012;20.902;2022-10-14T13:37:37;10.98;;;4.80;;
55218;SDS011;41088;44.012;20.902;2022-10-14T13:42:58;10.63;;;5.10;;
55218;SDS011;41088;44.012;20.902;2022-10-14T13:45:31;14.77;;;4.80;;
55218;SDS011;41088;44.012;20.902;2022-10-14T13:48:00;9.43;;;4.18;;
55218;SDS011;41088;44.012;20.902;2022-10-14T13:50:30;11.65;;;4.30;;
55218;SDS011;41088;44.012;20.902;2022-10-14T13:52:58;12.40;;;4.70;;
55218;SDS011;41088;44.012;20.902;2022-10-14T13:55:26;13.88;;;4.57;;
55218;SDS011;41088;44.012;20.902;2022-10-14T13:58:10;12.57;;;4.78;;
55218;SDS011;41088;44.012;20.902;2022-10-14T14:00:38;9.95;;;4.38;;
55218;SDS011;41088;44.012;20.902;2022-10-14T14:03:13;8.85;;;4.57;;
55218;SDS011;41088;44.012;20.902;2022-10-14T14:05:40;13.05;;;4.28;;
55218;SDS011;41088;44.012;20.902;2022-10-14T14:08:10;9.35;;;4.13;;
55218;SDS011;41088;44.012;20.902;2022-10-14T14:10:37;14.35;;;4.45;;
55218;SDS011;41088;44.012;20.902;2022-10-14T14:13:03;8.82;;;3.92;;
55218;SDS011;41088;44.012;20.902;2022-10-14T14:15:30;10.13;;;4.38;;
55218;SDS011;41088;44.012;20.902;2022-10-14T14:17:56;11.40;;;4.57;;
55218;SDS011;41088;44.012;20.902;2022-10-14T14:20:23;11.18;;;5.18;;
55218;SDS011;41088;44.012;20.902;2022-10-14T14:22:50;11.05;;;4.32;;
55218;SDS011;41088;44.012;20.902;2022-10-14T14:25:24;11.45;;;4.20;;
55218;SDS011;41088;44.012;20.902;2022-10-14T14:27:51;12.30;;;4.78;;
55218;SDS011;41088;44.012;20.902;2022-10-14T14:30:25;8.25;;;4.28;;
55218;SDS011;41088;44.012;20.902;2022-10-14T14:32:53;9.45;;;4.22;;
55218;SDS011;41088;44.012;20.902;2022-10-14T14:35:19;13.23;;;5.18;;
55218;SDS011;41088;44.012;20.902;2022-10-14T14:37:46;14.50;;;5.43;;
55218;SDS011;41088;44.012;20.902;2022-10-14T14:40:33;9.48;;;5.22;;
55218;SDS011;41088;44.012;20.902;2022-10-14T14:42:59;13.35;;;5.97;;
55218;SDS011;41088;44.012;20.902;2022-10-14T14:45:30;9.20;;;5.00;;
55218;SDS011;41088;44.012;20.902;2022-10-14T14:47:57;10.85;;;5.13;;
55218;SDS011;41088;44.012;20.902;2022-10-14T14:50:28;9.93;;;5.10;;
55218;SDS011;41088;44.012;20.902;2022-10-14T14:52:54;10.38;;;4.72;;
55218;SDS011;41088;44.012;20.902;2022-10-14T15:01:01;14.50;;;5.40;;
55218;SDS011;41088;44.012;20.902;2022-10-14T15:03:28;13.52;;;5.10;;
55218;SDS011;41088;44.012;20.902;2022-10-14T15:05:57;14.45;;;5.70;;
55218;SDS011;41088;44.012;20.902;2022-10-14T15:08:49;11.27;;;5.07;;
55218;SDS011;41088;44.012;20.902;2022-10-14T15:11:34;9.25;;;4.95;;
55218;SDS011;41088;44.012;20.902;2022-10-14T15:14:23;16.02;;;5.82;;
55218;SDS011;41088;44.012;20.902;2022-10-14T15:16:53;10.23;;;4.72;;
55218;SDS011;41088;44.012;20.902;2022-10-14T15:21:46;10.15;;;5.10;;
55218;SDS011;41088;44.012;20.902;2022-10-14T15:24:15;9.35;;;5.15;;
55218;SDS011;41088;44.012;20.902;2022-10-14T15:26:44;10.70;;;4.70;;
55218;SDS011;41088;44.012;20.902;2022-10-14T15:29:17;13.30;;;5.03;;
55218;SDS011;41088;44.012;20.902;2022-10-14T15:32:07;10.35;;;4.68;;
55218;SDS011;41088;44.012;20.902;2022-10-14T15:34:32;11.90;;;4.97;;
55218;SDS011;41088;44.012;20.902;2022-10-14T15:36:59;9.77;;;4.75;;
55218;SDS011;41088;44.012;20.902;2022-10-14T15:39:25;30.60;;;6.35;;
55218;SDS011;41088;44.012;20.902;2022-10-14T15:41:51;9.57;;;6.22;;
55218;SDS011;41088;44.012;20.902;2022-10-14T15:44:17;13.25;;;6.53;;
55218;SDS011;41088;44.012;20.902;2022-10-14T15:46:43;20.02;;;7.10;;
55218;SDS011;41088;44.012;20.902;2022-10-14T15:49:35;17.23;;;8.07;;
55218;SDS011;41088;44.012;20.902;2022-10-14T15:52:03;19.58;;;8.70;;
55218;SDS011;41088;44.012;20.902;2022-10-14T15:54:29;19.63;;;9.55;;
55218;SDS011;41088;44.012;20.902;2022-10-14T15:56:55;18.55;;;9.10;;
55218;SDS011;41088;44.012;20.902;2022-10-14T15:59:22;18.17;;;8.43;;
55218;SDS011;41088;44.012;20.902;2022-10-14T16:01:49;20.92;;;9.63;;
55218;SDS011;41088;44.012;20.902;2022-10-14T16:04:16;20.35;;;9.63;;
55218;SDS011;41088;44.012;20.902;2022-10-14T16:06:46;21.15;;;9.82;;
55218;SDS011;41088;44.012;20.902;2022-10-14T16:09:15;22.00;;;9.07;;
55218;SDS011;41088;44.012;20.902;2022-10-14T16:11:41;20.13;;;9.65;;
55218;SDS011;41088;44.012;20.902;2022-10-14T16:14:08;17.83;;;9.15;;
55218;SDS011;41088;44.012;20.902;2022-10-14T16:16:38;20.83;;;10.00;;
55218;SDS011;41088;44.012;20.902;2022-10-14T16:19:05;21.20;;;10.68;;
55218;SDS011;41088;44.012;20.902;2022-10-14T16:21:32;25.52;;;12.90;;
55218;SDS011;41088;44.012;20.902;2022-10-14T16:23:58;32.40;;;14.30;;
55218;SDS011;41088;44.012;20.902;2022-10-14T16:26:24;28.58;;;16.73;;
55218;SDS011;41088;44.012;20.902;2022-10-14T16:28:51;37.28;;;17.92;;
55218;SDS011;41088;44.012;20.902;2022-10-14T16:31:22;36.45;;;18.67;;
55218;SDS011;41088;44.012;20.902;2022-10-14T16:33:49;32.10;;;17.90;;
55218;SDS011;41088;44.012;20.902;2022-10-14T16:36:16;38.05;;;18.35;;
55218;SDS011;41088;44.012;20.902;2022-10-14T16:38:43;34.03;;;19.23;;
55218;SDS011;41088;44.012;20.902;2022-10-14T16:41:09;42.05;;;18.23;;
55218;SDS011;41088;44.012;20.902;2022-10-14T16:43:37;26.52;;;15.40;;
55218;SDS011;41088;44.012;20.902;2022-10-14T16:46:03;36.08;;;18.23;;
55218;SDS011;41088;44.012;20.902;2022-10-14T16:48:31;31.55;;;16.88;;
55218;SDS011;41088;44.012;20.902;2022-10-14T16:50:58;36.97;;;17.30;;
55218;SDS011;41088;44.012;20.902;2022-10-14T16:53:24;37.45;;;17.75;;
55218;SDS011;41088;44.012;20.902;2022-10-14T16:56:14;31.52;;;16.38;;
55218;SDS011;41088;44.012;20.902;2022-10-14T16:58:59;38.38;;;15.95;;
55218;SDS011;41088;44.012;20.902;2022-10-14T17:01:26;32.67;;;16.90;;
55218;SDS011;41088;44.012;20.902;2022-10-14T17:03:53;38.28;;;18.77;;
55218;SDS011;41088;44.012;20.902;2022-10-14T17:06:19;51.78;;;24.67;;
55218;SDS011;41088;44.012;20.902;2022-10-14T17:08:46;54.42;;;26.40;;
55218;SDS011;41088;44.012;20.902;2022-10-14T17:11:12;57.38;;;28.33;;
55218;SDS011;41088;44.012;20.902;2022-10-14T17:13:40;67.35;;;30.90;;
55218;SDS011;41088;44.012;20.902;2022-10-14T17:16:06;67.22;;;34.17;;
55218;SDS011;41088;44.012;20.902;2022-10-14T17:18:34;74.55;;;33.83;;
55218;SDS011;41088;44.012;20.902;2022-10-14T17:21:02;78.30;;;35.95;;
55218;SDS011;41088;44.012;20.902;2022-10-14T17:23:31;77.72;;;35.67;;
55218;SDS011;41088;44.012;20.902;2022-10-14T17:26:00;83.47;;;39.42;;
55218;SDS011;41088;44.012;20.902;2022-10-14T17:28:28;89.00;;;43.22;;
55218;SDS011;41088;44.012;20.902;2022-10-14T17:30:55;86.63;;;44.05;;
55218;SDS011;41088;44.012;20.902;2022-10-14T17:33:22;82.22;;;42.55;;
55218;SDS011;41088;44.012;20.902;2022-10-14T17:35:57;80.93;;;41.72;;
55218;SDS011;41088;44.012;20.902;2022-10-14T17:38:23;79.45;;;40.05;;
55218;SDS011;41088;44.012;20.902;2022-10-14T17:41:12;77.00;;;40.70;;
55218;SDS011;41088;44.012;20.902;2022-10-14T17:44:03;71.95;;;37.42;;
55218;SDS011;41088;44.012;20.902;2022-10-14T17:46:35;76.78;;;38.30;;
55218;SDS011;41088;44.012;20.902;2022-10-14T17:49:08;79.47;;;40.13;;
55218;SDS011;41088;44.012;20.902;2022-10-14T17:51:54;81.80;;;40.92;;
55218;SDS011;41088;44.012;20.902;2022-10-14T17:54:21;79.45;;;43.33;;
55218;SDS011;41088;44.012;20.902;2022-10-14T17:56:47;88.20;;;45.35;;
55218;SDS011;41088;44.012;20.902;2022-10-14T17:59:12;98.40;;;49.08;;
55218;SDS011;41088;44.012;20.902;2022-10-14T18:01:39;99.93;;;52.17;;
55218;SDS011;41088;44.012;20.902;2022-10-14T18:04:05;109.38;;;56.97;;
55218;SDS011;41088;44.012;20.902;2022-10-14T18:06:32;121.30;;;64.57;;
55218;SDS011;41088;44.012;20.902;2022-10-14T18:09:00;127.60;;;66.63;;
55218;SDS011;41088;44.012;20.902;2022-10-14T18:11:27;127.82;;;68.07;;
55218;SDS011;41088;44.012;20.902;2022-10-14T18:14:02;71.35;;;38.05;;
55218;SDS011;41088;44.012;20.902;2022-10-14T18:16:34;89.20;;;43.15;;
55218;SDS011;41088;44.012;20.902;2022-10-14T18:19:02;83.35;;;42.67;;
55218;SDS011;41088;44.012;20.902;2022-10-14T18:21:30;102.60;;;54.05;;
55218;SDS011;41088;44.012;20.902;2022-10-14T18:23:56;111.72;;;62.28;;
55218;SDS011;41088;44.012;20.902;2022-10-14T18:26:23;122.72;;;62.53;;
55218;SDS011;41088;44.012;20.902;2022-10-14T18:28:50;133.18;;;70.05;;
55218;SDS011;41088;44.012;20.902;2022-10-14T18:31:18;136.73;;;71.82;;
55218;SDS011;41088;44.012;20.902;2022-10-14T18:33:45;131.23;;;64.63;;
55218;SDS011;41088;44.012;20.902;2022-10-14T18:36:13;125.05;;;63.67;;
55218;SDS011;41088;44.012;20.902;2022-10-14T18:38:39;130.65;;;61.15;;
55218;SDS011;41088;44.012;20.902;2022-10-14T18:41:10;120.80;;;58.95;;
55218;SDS011;41088;44.012;20.902;2022-10-14T18:43:47;119.40;;;57.30;;
55218;SDS011;41088;44.012;20.902;2022-10-14T18:46:15;111.75;;;56.20;;
55218;SDS011;41088;44.012;20.902;2022-10-14T18:48:42;104.35;;;53.58;;
55218;SDS011;41088;44.012;20.902;2022-10-14T20:21:20;26.42;;;14.48;;
55218;SDS011;41088;44.012;20.902;2022-10-14T20:23:47;29.55;;;14.35;;
55218;SDS011;41088;44.012;20.902;2022-10-14T20:26:14;24.38;;;13.50;;
55218;SDS011;41088;44.012;20.902;2022-10-14T20:28:41;24.02;;;13.27;;
55218;SDS011;41088;44.012;20.902;2022-10-14T20:31:08;27.23;;;14.27;;
55218;SDS011;41088;44.012;20.902;2022-10-14T20:33:36;25.27;;;12.73;;
55218;SDS011;41088;44.012;20.902;2022-10-14T20:36:07;23.48;;;13.10;;
55218;SDS011;41088;44.012;20.902;2022-10-14T20:38:36;24.17;;;12.80;;
55218;SDS011;41088;44.012;20.902;2022-10-14T20:41:03;25.50;;;12.40;;
55218;SDS011;41088;44.012;20.902;2022-10-14T20:43:31;25.08;;;12.50;;
55218;SDS011;41088;44.012;20.902;2022-10-14T20:45:57;23.55;;;13.40;;
55218;SDS011;41088;44.012;20.902;2022-10-14T20:48:23;25.85;;;13.48;;
55218;SDS011;41088;44.012;20.902;2022-10-14T20:50:49;24.67;;;13.30;;
55218;SDS011;41088;44.012;20.902;2022-10-14T20:53:16;25.95;;;14.00;;
55218;SDS011;41088;44.012;20.902;2022-10-14T20:55:42;26.60;;;14.80;;
55218;SDS011;41088;44.012;20.902;2022-10-14T20:58:08;31.40;;;15.57;;
55218;SDS011;41088;44.012;20.902;2022-10-14T21:03:08;34.20;;;16.88;;
55218;SDS011;41088;44.012;20.902;2022-10-14T21:05:35;32.17;;;18.02;;
55218;SDS011;41088;44.012;20.902;2022-10-14T21:08:03;35.72;;;18.58;;
55218;SDS011;41088;44.012;20.902;2022-10-14T21:10:56;40.05;;;20.27;;
55218;SDS011;41088;44.012;20.902;2022-10-14T21:13:24;33.70;;;18.63;;
55218;SDS011;41088;44.012;20.902;2022-10-14T21:15:51;37.17;;;22.20;;
55218;SDS011;41088;44.012;20.902;2022-10-14T21:18:17;42.78;;;26.83;;
55218;SDS011;41088;44.012;20.902;2022-10-14T21:20:46;43.83;;;28.02;;
55218;SDS011;41088;44.012;20.902;2022-10-14T21:23:19;33.30;;;18.58;;
55218;SDS011;41088;44.012;20.902;2022-10-14T21:25:57;28.52;;;15.05;;
55218;SDS011;41088;44.012;20.902;2022-10-14T21:28:24;32.42;;;19.23;;
55218;SDS011;41088;44.012;20.902;2022-10-14T21:30:51;31.20;;;19.10;;
55218;SDS011;41088;44.012;20.902;2022-10-14T21:33:17;42.33;;;20.38;;
55218;SDS011;41088;44.012;20.902;2022-10-14T21:35:44;30.88;;;18.13;;
55218;SDS011;41088;44.012;20.902;2022-10-14T21:38:10;35.15;;;20.08;;
55218;SDS011;41088;44.012;20.902;2022-10-14T21:40:37;48.55;;;28.00;;
55218;SDS011;41088;44.012;20.902;2022-10-14T21:43:03;61.58;;;31.58;;
55218;SDS011;41088;44.012;20.902;2022-10-14T21:45:29;66.70;;;35.92;;
55218;SDS011;41088;44.012;20.902;2022-10-14T21:47:55;65.88;;;34.92;;
55218;SDS011;41088;44.012;20.902;2022-10-14T21:50:22;67.70;;;37.70;;
55218;SDS011;41088;44.012;20.902;2022-10-14T21:52:49;59.30;;;33.60;;
55218;SDS011;41088;44.012;20.902;2022-10-14T21:55:16;68.68;;;35.58;;
55218;SDS011;41088;44.012;20.902;2022-10-14T21:57:42;73.13;;;40.25;;
55218;SDS011;41088;44.012;20.902;2022-10-14T22:00:09;60.28;;;31.77;;
55218;SDS011;41088;44.012;20.902;2022-10-14T22:02:37;64.20;;;32.25;;
55218;SDS011;41088;44.012;20.902;2022-10-14T22:05:03;66.93;;;35.85;;
55218;SDS011;41088;44.012;20.902;2022-10-14T22:07:35;56.83;;;32.45;;
55218;SDS011;41088;44.012;20.902;2022-10-14T22:10:10;53.95;;;30.17;;
55218;SDS011;41088;44.012;20.902;2022-10-14T22:12:56;47.97;;;25.88;;
55218;SDS011;41088;44.012;20.902;2022-10-14T22:15:23;52.13;;;28.40;;
55218;SDS011;41088;44.012;20.902;2022-10-14T22:17:49;48.97;;;23.88;;
55218;SDS011;41088;44.012;20.902;2022-10-14T22:20:16;43.78;;;24.27;;
55218;SDS011;41088;44.012;20.902;2022-10-14T22:22:49;41.90;;;21.90;;
55218;SDS011;41088;44.012;20.902;2022-10-14T22:27:51;48.88;;;24.75;;
55218;SDS011;41088;44.012;20.902;2022-10-14T22:30:20;57.53;;;25.85;;
55218;SDS011;41088;44.012;20.902;2022-10-14T22:32:46;46.78;;;25.38;;
55218;SDS011;41088;44.012;20.902;2022-10-14T22:35:19;43.75;;;22.05;;
55218;SDS011;41088;44.012;20.902;2022-10-14T22:37:49;38.92;;;21.95;;
55218;SDS011;41088;44.012;20.902;2022-10-14T22:40:16;34.67;;;19.23;;
55218;SDS011;41088;44.012;20.902;2022-10-14T22:42:43;41.25;;;19.95;;
55218;SDS011;41088;44.012;20.902;2022-10-14T22:45:09;38.20;;;20.30;;
55218;SDS011;41088;44.012;20.902;2022-10-14T22:47:39;38.83;;;19.90;;
55218;SDS011;41088;44.012;20.902;2022-10-14T22:50:11;37.47;;;20.45;;
55218;SDS011;41088;44.012;20.902;2022-10-14T22:52:37;46.35;;;24.67;;
55218;SDS011;41088;44.012;20.902;2022-10-14T22:55:04;44.92;;;25.38;;
55218;SDS011;41088;44.012;20.902;2022-10-14T22:57:31;38.38;;;21.83;;
55218;SDS011;41088;44.012;20.902;2022-10-14T22:59:57;42.25;;;21.40;;
55218;SDS011;41088;44.012;20.902;2022-10-14T23:02:23;43.97;;;22.60;;
55218;SDS011;41088;44.012;20.902;2022-10-14T23:04:50;50.05;;;23.88;;
55218;SDS011;41088;44.012;20.902;2022-10-14T23:07:16;43.15;;;22.83;;
55218;SDS011;41088;44.012;20.902;2022-10-14T23:09:42;45.05;;;22.85;;
55218;SDS011;41088;44.012;20.902;2022-10-14T23:12:08;43.55;;;21.65;;
55218;SDS011;41088;44.012;20.902;2022-10-14T23:14:35;34.30;;;18.45;;
55218;SDS011;41088;44.012;20.902;2022-10-14T23:19:34;40.55;;;21.27;;
55218;SDS011;41088;44.012;20.902;2022-10-14T23:22:00;33.03;;;18.88;;
55218;SDS011;41088;44.012;20.902;2022-10-14T23:24:27;31.40;;;17.52;;
55218;SDS011;41088;44.012;20.902;2022-10-14T23:27:16;30.95;;;16.88;;
55218;SDS011;41088;44.012;20.902;2022-10-14T23:29:42;34.10;;;17.15;;
55218;SDS011;41088;44.012;20.902;2022-10-14T23:32:10;30.70;;;17.88;;
55218;SDS011;41088;44.012;20.902;2022-10-14T23:34:42;31.83;;;18.38;;
55218;SDS011;41088;44.012;20.902;2022-10-14T23:37:09;32.90;;;17.40;;
55218;SDS011;41088;44.012;20.902;2022-10-14T23:39:42;36.58;;;17.27;;
55218;SDS011;41088;44.012;20.902;2022-10-14T23:42:08;32.03;;;17.77;;
55218;SDS011;41088;44.012;20.902;2022-10-14T23:44:37;35.20;;;20.70;;
55218;SDS011;41088;44.012;20.902;2022-10-14T23:47:04;34.97;;;18.30;;
55218;SDS011;41088;44.012;20.902;2022-10-14T23:49:30;34.13;;;18.23;;
55218;SDS011;41088;44.012;20.902;2022-10-14T23:51:57;33.75;;;19.30;;
55218;SDS011;41088;44.012;20.902;2022-10-14T23:54:23;34.97;;;18.65;;
55218;SDS011;41088;44.012;20.902;2022-10-14T23:56:53;34.72;;;18.63;;
55218;SDS011;41088;44.012;20.902;2022-10-14T23:59:25;37.57;;;19.70;;
